Search for airport 
image banner adimage banner adimage banner ad
image banner ad

NV23 - Air Sailing

Located in Sparks, United States

ICAO - NV23, IATA -

Data provided by Airmate  

General information

Coordinates: N39°52'20" W119°42'4"
Elevation is 4300 feet MSL.
Magnetic variation is 16° East
View others Airports in Nevada

Operational data

Special qualification required
Current time UTC:
Current local time:
Weather at : KRTS - Reno/Stead ( 27 km )
METAR: KRTS 131035Z AUTO 34006KT 10SM CLR 11/02 A3004 RMK AO2
View NOTAMs / SUP AIP / TFR affecting this airport [VIEW]
Communications frequencies: [VIEW]

Runways:

RWY identifierQFULength (ft)Width (ft)SurfaceLDA (ft)
03300060OTHER
21300060OTHER
177000100OTHER
357000100OTHER

Airport contact information

Address: Sparks United States

Satellite view of NV23